createdAt,value
2022-08-07T00:01:43.766Z,22.28
2022-08-07T00:04:09.617Z,22.23
2022-08-07T00:06:40.917Z,22.22
2022-08-07T00:09:21.403Z,22.18
2022-08-07T00:11:55.742Z,22.16
2022-08-07T00:14:30.992Z,22.13
2022-08-07T00:17:01.575Z,22.11
2022-08-07T00:20:00.481Z,22.10
2022-08-07T00:22:24.782Z,22.08
2022-08-07T00:25:07.074Z,22.06
2022-08-07T00:27:53.199Z,22.07
2022-08-07T00:30:28.002Z,22.05
2022-08-07T00:32:57.461Z,22.06
2022-08-07T00:35:29.827Z,22.05
2022-08-07T00:37:59.573Z,22.06
2022-08-07T00:40:39.604Z,22.03
2022-08-07T00:43:14.067Z,22.02
2022-08-07T00:45:59.126Z,21.99
2022-08-07T00:48:30.850Z,21.98
2022-08-07T00:51:01.177Z,21.97
2022-08-07T00:53:38.565Z,21.97
2022-08-07T00:56:15.485Z,21.94
2022-08-07T00:58:47.450Z,21.91
2022-08-07T01:01:20.362Z,21.89
2022-08-07T01:03:56.313Z,21.88
2022-08-07T01:06:30.445Z,21.83
2022-08-07T01:09:01.577Z,21.84
2022-08-07T01:12:26.567Z,21.83
2022-08-07T01:14:28.411Z,21.78
2022-08-07T01:16:58.018Z,21.80
2022-08-07T01:19:28.168Z,21.74
2022-08-07T01:22:03.437Z,21.73
2022-08-07T01:24:37.438Z,21.69
2022-08-07T01:27:06.538Z,21.67
2022-08-07T01:29:48.285Z,21.64
2022-08-07T01:32:19.457Z,21.62
2022-08-07T01:34:52.142Z,21.61
2022-08-07T01:37:22.474Z,21.58
2022-08-07T01:39:51.691Z,21.57
2022-08-07T01:42:40.263Z,21.52
2022-08-07T01:45:17.895Z,21.49
2022-08-07T01:48:18.114Z,21.44
2022-08-07T01:50:40.257Z,21.41
2022-08-07T01:53:20.989Z,21.38
2022-08-07T01:55:57.978Z,21.35
2022-08-07T01:58:33.940Z,21.31
2022-08-07T02:01:59.052Z,21.26
2022-08-07T02:04:15.498Z,21.18
2022-08-07T02:06:45.871Z,21.11
2022-08-07T02:09:33.449Z,21.07
2022-08-07T02:12:18.139Z,21.00
2022-08-07T02:14:50.906Z,20.93
2022-08-07T02:17:27.733Z,20.88
2022-08-07T02:20:05.628Z,20.80
2022-08-07T02:22:41.186Z,20.75
2022-08-07T02:25:18.093Z,20.70
2022-08-07T02:27:51.973Z,20.64
2022-08-07T02:30:21.461Z,20.60
2022-08-07T02:33:03.679Z,20.54
2022-08-07T02:36:28.340Z,20.47
2022-08-07T02:38:31.572Z,20.39
2022-08-07T02:41:03.782Z,20.34
2022-08-07T02:43:34.496Z,20.29
2022-08-07T02:46:05.967Z,20.23
2022-08-07T02:48:34.749Z,20.19
2022-08-07T02:51:28.859Z,20.14
2022-08-07T02:54:00.970Z,20.10
2022-08-07T02:56:33.468Z,20.06
2022-08-07T02:59:05.843Z,20.02
2022-08-07T03:01:36.271Z,20.00
2022-08-07T03:04:12.443Z,19.95
2022-08-07T03:06:44.835Z,19.90
2022-08-07T03:09:43.455Z,19.87
2022-08-07T03:12:06.686Z,19.82
2022-08-07T03:14:37.727Z,19.77
2022-08-07T03:17:08.761Z,19.75
2022-08-07T03:19:37.646Z,19.73
2022-08-07T03:22:07.315Z,19.70
2022-08-07T03:24:47.962Z,19.67
2022-08-07T03:27:30.890Z,19.62
2022-08-07T03:30:07.830Z,19.57
2022-08-07T03:32:49.320Z,19.56
2022-08-07T03:35:43.510Z,19.50
2022-08-07T03:38:15.209Z,19.45
2022-08-07T03:40:44.975Z,19.42
2022-08-07T03:43:23.603Z,19.38
2022-08-07T03:45:55.360Z,19.34
2022-08-07T03:48:23.931Z,19.30
2022-08-07T03:50:57.781Z,19.26
2022-08-07T03:54:00.785Z,19.24
2022-08-07T03:56:33.338Z,19.17
2022-08-07T03:59:08.527Z,19.12
2022-08-07T04:01:45.335Z,19.09
2022-08-07T04:04:17.153Z,19.07
2022-08-07T04:06:50.957Z,19.05
2022-08-07T04:09:23.200Z,19.03
2022-08-07T04:12:26.678Z,19.00
2022-08-07T04:14:47.826Z,18.94
2022-08-07T04:17:20.946Z,18.92
2022-08-07T04:19:54.472Z,18.91
2022-08-07T04:22:28.842Z,18.91
2022-08-07T04:25:01.360Z,18.90
2022-08-07T04:27:35.604Z,18.90
2022-08-07T04:30:13.359Z,18.91
2022-08-07T04:32:58.226Z,18.90
2022-08-07T04:35:27.478Z,18.88
2022-08-07T04:38:07.967Z,18.89
2022-08-07T04:40:52.088Z,18.90
2022-08-07T04:43:53.423Z,18.90
2022-08-07T04:46:29.283Z,18.88
2022-08-07T04:49:18.066Z,18.90
2022-08-07T04:52:05.326Z,18.90
2022-08-07T04:54:40.422Z,18.92
2022-08-07T04:58:10.762Z,18.94
2022-08-07T05:00:17.449Z,18.95
2022-08-07T05:03:01.441Z,18.93
2022-08-07T05:05:53.256Z,18.94
2022-08-07T05:08:59.328Z,18.92
2022-08-07T05:11:57.560Z,18.93
2022-08-07T05:14:54.220Z,18.93
2022-08-07T05:17:51.805Z,18.93
2022-08-07T05:20:12.880Z,18.95
2022-08-07T05:22:44.770Z,19.00
2022-08-07T05:25:25.892Z,19.02
2022-08-07T05:28:20.345Z,19.07
2022-08-07T05:30:53.562Z,19.10
2022-08-07T05:33:22.914Z,19.13
2022-08-07T05:35:55.096Z,19.15
2022-08-07T05:38:59.763Z,19.19
2022-08-07T05:41:16.750Z,19.23
2022-08-07T05:44:11.971Z,19.26
2022-08-07T05:46:43.022Z,19.32
2022-08-07T05:49:14.272Z,19.38
2022-08-07T05:51:46.924Z,19.44
2022-08-07T05:54:31.417Z,19.50
2022-08-07T05:57:05.621Z,19.53
2022-08-07T05:59:55.824Z,19.59
2022-08-07T06:02:30.821Z,19.66
2022-08-07T06:05:05.629Z,19.75
2022-08-07T06:08:14.236Z,19.82
2022-08-07T06:10:25.613Z,19.89
2022-08-07T06:12:54.612Z,19.97
2022-08-07T06:15:38.513Z,20.06
2022-08-07T06:18:11.066Z,20.13
2022-08-07T06:20:50.887Z,20.21
2022-08-07T06:24:38.439Z,20.27
2022-08-07T06:26:21.669Z,20.35
2022-08-07T06:29:01.086Z,20.41
2022-08-07T06:31:46.951Z,20.50
2022-08-07T06:34:20.430Z,20.59
2022-08-07T06:36:52.171Z,20.68
2022-08-07T06:40:16.345Z,20.78
2022-08-07T06:42:19.221Z,20.90
2022-08-07T06:44:51.266Z,21.03
2022-08-07T06:47:20.959Z,21.14
2022-08-07T06:49:51.625Z,21.22
2022-08-07T06:52:31.410Z,21.31
2022-08-07T06:55:31.569Z,21.38
2022-08-07T06:58:03.105Z,21.46
2022-08-07T07:00:36.752Z,21.58
2022-08-07T07:03:11.069Z,21.69
2022-08-07T07:06:04.394Z,21.82
2022-08-07T07:08:33.188Z,21.96
2022-08-07T07:11:14.008Z,22.06
2022-08-07T07:13:58.029Z,22.21
2022-08-07T07:16:39.034Z,22.29
2022-08-07T07:19:56.480Z,22.42
2022-08-07T07:22:34.104Z,22.52
2022-08-07T07:25:14.030Z,22.63
2022-08-07T07:28:03.252Z,22.69
2022-08-07T07:30:40.745Z,22.80
2022-08-07T07:33:13.923Z,22.93
2022-08-07T07:36:04.866Z,23.04
2022-08-07T07:38:36.009Z,23.16
2022-08-07T07:41:09.407Z,23.27
2022-08-07T07:44:14.567Z,23.41
2022-08-07T07:46:54.241Z,23.55
2022-08-07T07:50:35.564Z,23.68
2022-08-07T07:52:17.231Z,23.80
2022-08-07T07:54:51.429Z,23.93
2022-08-07T07:57:43.963Z,24.04
2022-08-07T08:00:28.809Z,24.19
2022-08-07T08:03:06.099Z,24.29
2022-08-07T08:05:50.504Z,24.40
2022-08-07T08:08:34.624Z,24.57
2022-08-07T08:11:16.600Z,24.70
2022-08-07T08:13:55.249Z,24.84
2022-08-07T08:18:36.900Z,24.96
2022-08-07T08:20:18.993Z,25.05
2022-08-07T08:22:36.639Z,25.18
2022-08-07T08:25:42.192Z,25.26
2022-08-07T08:28:23.772Z,25.36
2022-08-07T08:31:14.784Z,25.49
2022-08-07T08:33:55.530Z,25.58
2022-08-07T08:36:30.605Z,25.68
2022-08-07T08:39:02.626Z,25.83
2022-08-07T08:41:57.362Z,25.92
2022-08-07T08:44:41.235Z,26.07
2022-08-07T08:47:27.895Z,26.20
2022-08-07T08:50:18.996Z,26.27
2022-08-07T08:53:10.634Z,26.34
2022-08-07T08:55:55.284Z,26.41
2022-08-07T08:58:37.177Z,26.47
2022-08-07T09:01:18.662Z,26.48
2022-08-07T09:04:06.975Z,26.55
2022-08-07T09:06:47.962Z,26.62
2022-08-07T09:09:41.749Z,26.73
2022-08-07T09:12:31.284Z,26.84
2022-08-07T09:16:25.604Z,26.87
2022-08-07T09:18:37.779Z,27.00
2022-08-07T09:21:33.877Z,27.09
2022-08-07T09:24:59.654Z,27.22
2022-08-07T09:27:38.305Z,27.23
2022-08-07T09:30:28.038Z,27.28
2022-08-07T09:33:16.501Z,27.32
2022-08-07T09:36:03.839Z,27.43
2022-08-07T09:38:53.511Z,27.51
2022-08-07T09:41:36.152Z,27.65
2022-08-07T09:44:32.839Z,27.70
2022-08-07T09:47:50.579Z,27.76
2022-08-07T09:50:20.077Z,27.83
2022-08-07T09:52:53.903Z,27.93
2022-08-07T09:55:29.525Z,27.95
2022-08-07T09:58:58.828Z,27.95
2022-08-07T10:02:03.229Z,27.92
2022-08-07T10:05:12.350Z,28.00
2022-08-07T10:07:59.267Z,28.09
2022-08-07T10:11:16.509Z,28.27
2022-08-07T10:14:00.337Z,28.47
2022-08-07T10:17:01.131Z,28.62
2022-08-07T10:19:48.336Z,28.77
2022-08-07T10:22:43.266Z,28.93
2022-08-07T10:25:42.109Z,29.01
2022-08-07T10:28:30.676Z,29.03
2022-08-07T10:31:39.118Z,29.08
2022-08-07T10:34:32.144Z,29.14
2022-08-07T10:37:48.276Z,29.20
2022-08-07T10:40:16.606Z,29.24
2022-08-07T10:43:03.112Z,29.27
2022-08-07T10:45:45.385Z,29.24
2022-08-07T10:48:48.589Z,29.19
2022-08-07T10:51:57.705Z,29.19
2022-08-07T10:54:19.335Z,29.12
2022-08-07T10:57:11.770Z,29.15
2022-08-07T11:00:05.633Z,29.13
2022-08-07T11:02:41.682Z,29.14
2022-08-07T11:05:50.624Z,29.07
2022-08-07T11:08:32.568Z,29.04
2022-08-07T11:11:09.178Z,29.06
2022-08-07T11:14:45.418Z,29.10
2022-08-07T11:16:42.482Z,29.02
2022-08-07T11:19:21.737Z,29.05
2022-08-07T11:22:18.952Z,29.09
2022-08-07T11:25:18.128Z,29.04
2022-08-07T11:28:01.364Z,29.02
2022-08-07T11:30:43.906Z,29.01
2022-08-07T11:33:53.321Z,28.99
2022-08-07T11:36:32.188Z,28.98
2022-08-07T11:39:20.061Z,29.01
2022-08-07T11:42:02.827Z,29.03
2022-08-07T11:44:52.676Z,29.05
2022-08-07T11:47:55.989Z,29.11
2022-08-07T11:50:57.139Z,29.23
2022-08-07T11:53:43.276Z,29.37
2022-08-07T11:56:53.250Z,29.45
2022-08-07T12:00:10.777Z,29.63
2022-08-07T12:03:45.063Z,29.77
2022-08-07T12:06:55.385Z,29.93
2022-08-07T12:09:36.735Z,30.08
2022-08-07T12:12:12.308Z,30.14
2022-08-07T12:14:55.728Z,30.04
2022-08-07T12:17:55.899Z,30.02
2022-08-07T12:20:36.508Z,29.93
2022-08-07T12:24:04.844Z,29.75
2022-08-07T12:26:33.623Z,29.61
2022-08-07T12:29:14.438Z,29.52
2022-08-07T12:32:02.266Z,29.41
2022-08-07T12:34:38.130Z,29.31
2022-08-07T12:37:16.790Z,29.28
2022-08-07T12:39:54.506Z,29.22
2022-08-07T12:42:31.860Z,29.22
2022-08-07T12:45:10.731Z,29.23
2022-08-07T12:47:50.716Z,29.23
2022-08-07T12:50:39.080Z,29.22
2022-08-07T12:53:17.651Z,29.21
2022-08-07T12:56:03.615Z,29.18
2022-08-07T12:58:39.922Z,29.21
2022-08-07T13:01:37.237Z,29.19
2022-08-07T13:04:35.738Z,29.19
2022-08-07T13:08:13.464Z,29.20
2022-08-07T13:10:51.387Z,29.28
2022-08-07T13:13:49.096Z,29.37
2022-08-07T13:16:32.904Z,29.45
2022-08-07T13:19:35.253Z,29.54
2022-08-07T13:22:26.896Z,29.66
2022-08-07T13:25:06.016Z,29.74
2022-08-07T13:28:11.724Z,29.85
2022-08-07T13:30:40.345Z,29.95
2022-08-07T13:34:31.382Z,30.03
2022-08-07T13:36:21.018Z,30.12
2022-08-07T13:39:05.117Z,30.21
2022-08-07T13:41:47.593Z,30.31
2022-08-07T13:44:25.870Z,30.39
2022-08-07T13:46:59.349Z,30.43
2022-08-07T13:50:34.003Z,30.44
2022-08-07T13:52:38.090Z,30.44
2022-08-07T13:55:19.583Z,30.42
2022-08-07T13:58:28.067Z,30.43
2022-08-07T14:01:09.338Z,30.45
2022-08-07T14:04:05.391Z,30.50
2022-08-07T14:06:34.389Z,30.52
2022-08-07T14:09:06.433Z,30.57
2022-08-07T14:12:00.473Z,30.47
2022-08-07T14:14:41.422Z,30.39
2022-08-07T14:18:13.030Z,30.34
2022-08-07T14:20:41.760Z,30.28
2022-08-07T14:23:08.602Z,30.16
2022-08-07T14:25:45.827Z,30.16
2022-08-07T14:28:19.284Z,30.15
2022-08-07T14:30:52.081Z,30.17
2022-08-07T14:33:22.617Z,30.14
2022-08-07T14:35:57.424Z,30.08
2022-08-07T14:38:31.591Z,30.10
2022-08-07T14:44:11.555Z,30.06
2022-08-07T14:46:51.863Z,30.07
2022-08-07T14:49:58.538Z,30.04
2022-08-07T14:52:27.743Z,30.02
2022-08-07T14:55:00.687Z,30.03
2022-08-07T15:00:29.857Z,30.04
2022-08-07T15:03:19.835Z,30.04
2022-08-07T15:11:53.271Z,29.98
2022-08-07T15:14:32.290Z,29.94
2022-08-07T15:17:04.445Z,29.90
2022-08-07T15:22:33.546Z,29.75
2022-08-07T15:25:17.977Z,29.70
2022-08-07T15:28:32.146Z,29.60
2022-08-07T15:31:04.922Z,29.52
2022-08-07T15:33:36.886Z,29.44
2022-08-07T15:36:08.646Z,29.38
2022-08-07T15:38:59.277Z,29.34
2022-08-07T15:42:44.982Z,29.28
2022-08-07T15:44:24.027Z,29.25
2022-08-07T15:47:03.347Z,29.19
2022-08-07T15:50:05.069Z,29.17
2022-08-07T15:52:38.227Z,29.11
2022-08-07T15:55:12.368Z,29.08
2022-08-07T15:57:48.435Z,29.06
2022-08-07T16:00:31.336Z,29.04
2022-08-07T16:03:21.761Z,29.01
2022-08-07T16:06:01.529Z,28.99
2022-08-07T16:08:38.813Z,28.99
2022-08-07T16:11:26.616Z,28.95
2022-08-07T16:14:10.709Z,28.94
2022-08-07T16:17:14.821Z,28.87
2022-08-07T16:20:33.676Z,28.76
2022-08-07T16:23:53.905Z,28.65
2022-08-07T16:26:34.143Z,28.55
2022-08-07T16:30:06.674Z,28.47
2022-08-07T16:32:33.218Z,28.40
2022-08-07T16:35:51.447Z,28.31
2022-08-07T16:39:00.675Z,28.23
2022-08-07T16:41:54.022Z,28.18
2022-08-07T16:45:14.132Z,28.14
2022-08-07T16:48:28.724Z,28.03
2022-08-07T16:51:54.405Z,27.98
2022-08-07T16:54:34.735Z,27.90
2022-08-07T16:58:00.762Z,27.89
2022-08-07T17:00:17.378Z,27.85
2022-08-07T17:03:17.771Z,27.81
2022-08-07T17:06:29.958Z,27.76
2022-08-07T17:09:14.179Z,27.71
2022-08-07T17:12:44.455Z,27.65
2022-08-07T17:15:05.271Z,27.59
2022-08-07T17:17:53.270Z,27.54
2022-08-07T17:20:32.967Z,27.48
2022-08-07T17:23:16.728Z,27.42
2022-08-07T17:26:01.733Z,27.34
2022-08-07T17:28:38.487Z,27.27
2022-08-07T17:31:24.901Z,27.20
2022-08-07T17:34:19.831Z,27.14
2022-08-07T17:36:59.952Z,27.06
2022-08-07T17:39:58.878Z,26.97
2022-08-07T17:42:59.797Z,26.89
2022-08-07T17:45:35.315Z,26.83
2022-08-07T17:48:12.641Z,26.77
2022-08-07T17:51:01.552Z,26.70
2022-08-07T17:54:00.751Z,26.63
2022-08-07T17:56:36.624Z,26.55
2022-08-07T17:59:24.696Z,26.49
2022-08-07T18:02:05.663Z,26.44
2022-08-07T18:04:43.786Z,26.37
2022-08-07T18:07:43.675Z,26.28
2022-08-07T18:10:32.000Z,26.22
2022-08-07T18:13:23.093Z,26.14
2022-08-07T18:16:05.079Z,26.07
2022-08-07T18:21:02.429Z,26.02
2022-08-07T18:21:58.142Z,25.96
2022-08-07T18:24:34.280Z,25.90
2022-08-07T18:27:39.126Z,25.82
2022-08-07T18:30:32.412Z,25.80
2022-08-07T18:33:55.465Z,25.72
2022-08-07T18:36:35.940Z,25.66
2022-08-07T18:40:06.373Z,25.62
2022-08-07T18:42:18.709Z,25.55
2022-08-07T18:45:43.048Z,25.50
2022-08-07T18:48:01.399Z,25.44
2022-08-07T18:50:59.133Z,25.37
2022-08-07T18:53:48.631Z,25.31
2022-08-07T18:56:37.635Z,25.24
2022-08-07T18:59:46.732Z,25.16
2022-08-07T19:02:42.444Z,25.08
2022-08-07T19:06:02.483Z,25.01
2022-08-07T19:08:22.289Z,24.94
2022-08-07T19:10:55.404Z,24.87
2022-08-07T19:13:35.007Z,24.79
2022-08-07T19:17:04.303Z,24.71
2022-08-07T19:19:04.831Z,24.62
2022-08-07T19:21:56.877Z,24.54
2022-08-07T19:24:44.339Z,24.45
2022-08-07T19:28:56.895Z,24.38
2022-08-07T19:30:55.946Z,24.29
2022-08-07T19:33:10.198Z,24.21
2022-08-07T19:35:43.965Z,24.15
2022-08-07T19:38:17.651Z,24.09
2022-08-07T19:40:50.797Z,24.05
2022-08-07T19:43:46.085Z,24.02
2022-08-07T19:46:17.906Z,23.98
2022-08-07T19:48:53.492Z,23.91
2022-08-07T19:51:50.707Z,23.88
2022-08-07T19:54:35.607Z,23.81
2022-08-07T19:58:01.099Z,23.76
2022-08-07T20:00:08.858Z,23.70
2022-08-07T20:02:53.490Z,23.63
2022-08-07T20:05:28.083Z,23.56
2022-08-07T20:08:02.611Z,23.48
2022-08-07T20:10:55.074Z,23.43
2022-08-07T20:13:32.917Z,23.34
2022-08-07T20:16:04.515Z,23.30
2022-08-07T20:18:34.862Z,23.25
2022-08-07T20:21:21.190Z,23.20
2022-08-07T20:23:54.738Z,23.14
2022-08-07T20:26:32.692Z,23.10
2022-08-07T20:29:16.984Z,23.07
2022-08-07T20:32:11.423Z,23.04
2022-08-07T20:34:53.035Z,23.02
2022-08-07T20:37:25.442Z,23.01
2022-08-07T20:40:02.268Z,22.99
2022-08-07T20:42:35.938Z,22.99
2022-08-07T20:45:33.491Z,22.97
2022-08-07T20:47:58.629Z,22.97
2022-08-07T20:50:30.540Z,22.96
2022-08-07T20:52:59.828Z,22.96
2022-08-07T20:55:32.045Z,22.97
2022-08-07T20:58:12.248Z,22.97
2022-08-07T21:00:56.148Z,22.95
2022-08-07T21:03:26.963Z,22.95
2022-08-07T21:06:00.876Z,22.95
2022-08-07T21:08:38.246Z,22.93
2022-08-07T21:11:14.213Z,22.92
2022-08-07T21:14:29.401Z,22.91
2022-08-07T21:16:46.795Z,22.89
2022-08-07T21:19:32.131Z,22.87
2022-08-07T21:22:19.046Z,22.85
2022-08-07T21:25:12.980Z,22.81
2022-08-07T21:28:04.159Z,22.77
2022-08-07T21:30:46.767Z,22.74
2022-08-07T21:33:23.166Z,22.70
2022-08-07T21:36:05.652Z,22.70
2022-08-07T21:38:54.455Z,22.65
2022-08-07T21:41:38.285Z,22.60
2022-08-07T21:44:30.594Z,22.56
2022-08-07T21:47:17.338Z,22.53
2022-08-07T21:50:02.348Z,22.49
2022-08-07T21:52:45.220Z,22.44
2022-08-07T21:55:29.904Z,22.43
2022-08-07T21:58:30.027Z,22.38
2022-08-07T22:01:08.492Z,22.33
2022-08-07T22:03:49.359Z,22.31
2022-08-07T22:06:29.999Z,22.28
2022-08-07T22:10:14.477Z,22.22
2022-08-07T22:12:49.885Z,22.16
2022-08-07T22:16:40.948Z,22.14
2022-08-07T22:18:25.516Z,22.09
2022-08-07T22:21:01.672Z,22.07
2022-08-07T22:23:41.984Z,22.04
2022-08-07T22:26:25.855Z,22.00
2022-08-07T22:29:02.739Z,21.98
2022-08-07T22:31:56.306Z,21.95
2022-08-07T22:34:39.987Z,21.91
2022-08-07T22:38:03.212Z,21.88
2022-08-07T22:40:29.044Z,21.84
2022-08-07T22:43:13.656Z,21.82
2022-08-07T22:47:01.866Z,21.77
2022-08-07T22:49:37.904Z,21.70
2022-08-07T22:52:37.523Z,21.70
2022-08-07T22:55:48.491Z,21.63
2022-08-07T22:58:43.246Z,21.60
2022-08-07T23:02:00.708Z,21.55
2022-08-07T23:04:57.933Z,21.51
2022-08-07T23:07:55.108Z,21.47
2022-08-07T23:10:42.041Z,21.43
2022-08-07T23:13:48.991Z,21.35
2022-08-07T23:16:55.281Z,21.28
2022-08-07T23:19:59.864Z,21.22
2022-08-07T23:22:43.329Z,21.17
2022-08-07T23:25:29.685Z,21.13
2022-08-07T23:28:22.923Z,21.07
2022-08-07T23:32:49.445Z,21.01
2022-08-07T23:34:46.375Z,20.95
2022-08-07T23:38:01.672Z,20.92
2022-08-07T23:40:37.509Z,20.87
2022-08-07T23:43:44.991Z,20.82
2022-08-07T23:46:50.767Z,20.76
2022-08-07T23:49:53.324Z,20.70
2022-08-07T23:53:05.211Z,20.68
2022-08-07T23:55:46.958Z,20.62
2022-08-07T23:58:36.265Z,20.57
